sensor_id;sensor_type;location;lat;lon;timestamp;temperature;humidity
67131;HTU21D;54051;53.464;49.532;2023-03-13T00:01:28;7.65;73.57
67131;HTU21D;54051;53.464;49.532;2023-03-13T00:03:55;7.61;73.39
67131;HTU21D;54051;53.464;49.532;2023-03-13T00:06:23;7.54;73.82
67131;HTU21D;54051;53.464;49.532;2023-03-13T00:08:50;7.50;74.18
67131;HTU21D;54051;53.464;49.532;2023-03-13T00:11:17;7.49;74.20
67131;HTU21D;54051;53.464;49.532;2023-03-13T00:13:44;7.55;73.87
67131;HTU21D;54051;53.464;49.532;2023-03-13T00:16:14;7.45;73.96
67131;HTU21D;54051;53.464;49.532;2023-03-13T00:18:50;7.44;74.37
67131;HTU21D;54051;53.464;49.532;2023-03-13T00:21:18;7.40;74.69
67131;HTU21D;54051;53.464;49.532;2023-03-13T00:23:45;7.40;74.28
67131;HTU21D;54051;53.464;49.532;2023-03-13T00:26:14;7.41;74.42
67131;HTU21D;54051;53.464;49.532;2023-03-13T00:28:41;7.47;74.26
67131;HTU21D;54051;53.464;49.532;2023-03-13T00:31:15;7.46;74.25
67131;HTU21D;54051;53.464;49.532;2023-03-13T00:33:44;7.41;74.57
67131;HTU21D;54051;53.464;49.532;2023-03-13T00:36:14;7.52;73.99
67131;HTU21D;54051;53.464;49.532;2023-03-13T00:38:40;7.50;74.26
67131;HTU21D;54051;53.464;49.532;2023-03-13T00:41:34;7.39;75.08
67131;HTU21D;54051;53.464;49.532;2023-03-13T00:44:01;7.42;74.80
67131;HTU21D;54051;53.464;49.532;2023-03-13T00:46:28;7.44;74.78
67131;HTU21D;54051;53.464;49.532;2023-03-13T00:48:55;7.41;74.57
67131;HTU21D;54051;53.464;49.532;2023-03-13T00:51:23;7.43;74.73
67131;HTU21D;54051;53.464;49.532;2023-03-13T00:53:52;7.39;75.28
67131;HTU21D;54051;53.464;49.532;2023-03-13T00:56:19;7.34;75.36
67131;HTU21D;54051;53.464;49.532;2023-03-13T00:58:48;7.43;75.25
67131;HTU21D;54051;53.464;49.532;2023-03-13T01:01:23;7.40;75.47
67131;HTU21D;54051;53.464;49.532;2023-03-13T01:03:55;7.35;75.78
67131;HTU21D;54051;53.464;49.532;2023-03-13T01:06:24;7.29;76.15
67131;HTU21D;54051;53.464;49.532;2023-03-13T01:08:51;7.33;75.61
67131;HTU21D;54051;53.464;49.532;2023-03-13T01:11:24;7.29;76.11
67131;HTU21D;54051;53.464;49.532;2023-03-13T01:13:59;7.35;75.60
67131;HTU21D;54051;53.464;49.532;2023-03-13T01:16:28;7.24;76.32
67131;HTU21D;54051;53.464;49.532;2023-03-13T01:18:58;7.22;76.52
67131;HTU21D;54051;53.464;49.532;2023-03-13T01:21:26;7.25;75.83
67131;HTU21D;54051;53.464;49.532;2023-03-13T01:23:53;7.27;76.04
67131;HTU21D;54051;53.464;49.532;2023-03-13T01:26:20;7.19;76.45
67131;HTU21D;54051;53.464;49.532;2023-03-13T01:28:47;7.13;76.80
67131;HTU21D;54051;53.464;49.532;2023-03-13T01:31:16;7.20;76.63
67131;HTU21D;54051;53.464;49.532;2023-03-13T01:33:44;7.20;76.43
67131;HTU21D;54051;53.464;49.532;2023-03-13T01:36:11;7.15;76.92
67131;HTU21D;54051;53.464;49.532;2023-03-13T01:38:38;7.22;76.40
67131;HTU21D;54051;53.464;49.532;2023-03-13T01:41:06;7.16;76.44
67131;HTU21D;54051;53.464;49.532;2023-03-13T01:43:35;7.16;76.96
67131;HTU21D;54051;53.464;49.532;2023-03-13T01:48:39;7.14;76.98
67131;HTU21D;54051;53.464;49.532;2023-03-13T01:51:25;7.03;77.95
67131;HTU21D;54051;53.464;49.532;2023-03-13T01:54:03;7.08;77.86
67131;HTU21D;54051;53.464;49.532;2023-03-13T01:59:29;6.98;80.06
67131;HTU21D;54051;53.464;49.532;2023-03-13T02:01:58;6.95;80.28
67131;HTU21D;54051;53.464;49.532;2023-03-13T02:04:28;6.89;81.58
67131;HTU21D;54051;53.464;49.532;2023-03-13T02:06:58;6.80;82.86
67131;HTU21D;54051;53.464;49.532;2023-03-13T02:09:26;6.79;83.90
67131;HTU21D;54051;53.464;49.532;2023-03-13T02:12:08;6.76;83.82
67131;HTU21D;54051;53.464;49.532;2023-03-13T02:14:37;6.78;83.23
67131;HTU21D;54051;53.464;49.532;2023-03-13T02:17:05;6.72;83.16
67131;HTU21D;54051;53.464;49.532;2023-03-13T02:19:47;6.80;83.29
67131;HTU21D;54051;53.464;49.532;2023-03-13T02:27:13;6.68;83.77
67131;HTU21D;54051;53.464;49.532;2023-03-13T02:29:40;6.67;82.94
67131;HTU21D;54051;53.464;49.532;2023-03-13T02:32:06;6.76;82.71
67131;HTU21D;54051;53.464;49.532;2023-03-13T02:34:34;6.94;81.72
67131;HTU21D;54051;53.464;49.532;2023-03-13T02:37:03;6.90;81.39
67131;HTU21D;54051;53.464;49.532;2023-03-13T02:39:31;6.74;82.02
67131;HTU21D;54051;53.464;49.532;2023-03-13T02:41:59;6.71;82.26
67131;HTU21D;54051;53.464;49.532;2023-03-13T02:44:26;6.72;82.33
67131;HTU21D;54051;53.464;49.532;2023-03-13T02:46:52;6.82;81.89
67131;HTU21D;54051;53.464;49.532;2023-03-13T02:49:25;6.73;82.23
67131;HTU21D;54051;53.464;49.532;2023-03-13T02:51:53;6.71;82.52
67131;HTU21D;54051;53.464;49.532;2023-03-13T02:54:22;6.72;82.36
67131;HTU21D;54051;53.464;49.532;2023-03-13T02:56:53;6.63;82.55
67131;HTU21D;54051;53.464;49.532;2023-03-13T02:59:21;6.65;82.76
67131;HTU21D;54051;53.464;49.532;2023-03-13T03:01:47;6.60;83.11
67131;HTU21D;54051;53.464;49.532;2023-03-13T03:04:19;6.57;82.72
67131;HTU21D;54051;53.464;49.532;2023-03-13T03:06:46;6.56;83.06
67131;HTU21D;54051;53.464;49.532;2023-03-13T03:09:12;6.55;83.17
67131;HTU21D;54051;53.464;49.532;2023-03-13T03:11:39;6.46;83.26
67131;HTU21D;54051;53.464;49.532;2023-03-13T03:14:05;6.50;83.56
67131;HTU21D;54051;53.464;49.532;2023-03-13T03:28:51;6.60;84.66
67131;HTU21D;54051;53.464;49.532;2023-03-13T03:31:29;6.55;84.41
67131;HTU21D;54051;53.464;49.532;2023-03-13T03:33:59;6.61;84.08
67131;HTU21D;54051;53.464;49.532;2023-03-13T03:39:15;6.49;84.93
67131;HTU21D;54051;53.464;49.532;2023-03-13T03:45:03;6.48;85.14
67131;HTU21D;54051;53.464;49.532;2023-03-13T03:47:54;6.45;85.18
67131;HTU21D;54051;53.464;49.532;2023-03-13T03:50:28;6.45;85.35
67131;HTU21D;54051;53.464;49.532;2023-03-13T03:52:57;6.52;85.35
67131;HTU21D;54051;53.464;49.532;2023-03-13T03:55:30;6.50;85.41
67131;HTU21D;54051;53.464;49.532;2023-03-13T03:58:06;6.48;85.47
67131;HTU21D;54051;53.464;49.532;2023-03-13T04:00:57;6.46;85.65
67131;HTU21D;54051;53.464;49.532;2023-03-13T04:08:58;6.30;86.70
67131;HTU21D;54051;53.464;49.532;2023-03-13T04:14:47;6.37;86.48
67131;HTU21D;54051;53.464;49.532;2023-03-13T04:22:50;6.36;86.91
67131;HTU21D;54051;53.464;49.532;2023-03-13T04:31:12;6.43;86.51
67131;HTU21D;54051;53.464;49.532;2023-03-13T04:36:33;6.52;86.15
67131;HTU21D;54051;53.464;49.532;2023-03-13T04:39:09;6.45;85.93
67131;HTU21D;54051;53.464;49.532;2023-03-13T04:44:26;6.46;87.24
67131;HTU21D;54051;53.464;49.532;2023-03-13T04:46:59;6.52;87.45
67131;HTU21D;54051;53.464;49.532;2023-03-13T04:49:26;6.45;88.38
67131;HTU21D;54051;53.464;49.532;2023-03-13T04:51:54;6.39;88.69
67131;HTU21D;54051;53.464;49.532;2023-03-13T04:57:20;6.24;90.49
67131;HTU21D;54051;53.464;49.532;2023-03-13T05:05:43;6.30;90.72
67131;HTU21D;54051;53.464;49.532;2023-03-13T05:11:19;6.26;91.09
67131;HTU21D;54051;53.464;49.532;2023-03-13T05:26:11;6.44;89.28
67131;HTU21D;54051;53.464;49.532;2023-03-13T05:28:41;6.42;89.00
67131;HTU21D;54051;53.464;49.532;2023-03-13T05:31:35;6.39;89.21
67131;HTU21D;54051;53.464;49.532;2023-03-13T05:34:09;6.44;88.91
67131;HTU21D;54051;53.464;49.532;2023-03-13T05:39:29;6.33;88.83
67131;HTU21D;54051;53.464;49.532;2023-03-13T05:42:23;6.26;88.58
67131;HTU21D;54051;53.464;49.532;2023-03-13T05:44:53;6.33;88.89
67131;HTU21D;54051;53.464;49.532;2023-03-13T05:50:14;6.31;88.48
67131;HTU21D;54051;53.464;49.532;2023-03-13T05:55:18;6.33;88.31
67131;HTU21D;54051;53.464;49.532;2023-03-13T05:57:52;6.30;87.79
67131;HTU21D;54051;53.464;49.532;2023-03-13T06:00:21;6.33;87.80
67131;HTU21D;54051;53.464;49.532;2023-03-13T06:02:55;6.34;87.70
67131;HTU21D;54051;53.464;49.532;2023-03-13T06:05:31;6.28;87.49
67131;HTU21D;54051;53.464;49.532;2023-03-13T06:11:01;6.09;87.75
67131;HTU21D;54051;53.464;49.532;2023-03-13T06:13:31;5.62;83.48
67131;HTU21D;54051;53.464;49.532;2023-03-13T06:16:25;4.96;83.86
67131;HTU21D;54051;53.464;49.532;2023-03-13T06:19:16;4.66;84.77
67131;HTU21D;54051;53.464;49.532;2023-03-13T06:21:46;4.49;85.35
67131;HTU21D;54051;53.464;49.532;2023-03-13T06:24:40;4.28;85.84
67131;HTU21D;54051;53.464;49.532;2023-03-13T06:27:34;4.20;86.46
67131;HTU21D;54051;53.464;49.532;2023-03-13T06:33:12;4.14;86.29
67131;HTU21D;54051;53.464;49.532;2023-03-13T06:36:04;4.10;86.40
67131;HTU21D;54051;53.464;49.532;2023-03-13T06:38:55;4.09;86.70
67131;HTU21D;54051;53.464;49.532;2023-03-13T06:41:29;4.12;86.12
67131;HTU21D;54051;53.464;49.532;2023-03-13T06:44:02;4.13;85.82
67131;HTU21D;54051;53.464;49.532;2023-03-13T06:46:31;4.14;85.35
67131;HTU21D;54051;53.464;49.532;2023-03-13T06:49:01;4.12;84.71
67131;HTU21D;54051;53.464;49.532;2023-03-13T06:51:56;4.06;84.32
67131;HTU21D;54051;53.464;49.532;2023-03-13T06:54:29;3.98;84.39
67131;HTU21D;54051;53.464;49.532;2023-03-13T07:02:58;3.43;83.38
67131;HTU21D;54051;53.464;49.532;2023-03-13T07:05:26;3.27;84.15
67131;HTU21D;54051;53.464;49.532;2023-03-13T07:07:53;3.10;84.33
67131;HTU21D;54051;53.464;49.532;2023-03-13T07:10:21;3.03;85.22
67131;HTU21D;54051;53.464;49.532;2023-03-13T07:15:50;2.98;85.65
67131;HTU21D;54051;53.464;49.532;2023-03-13T07:21:36;3.05;85.71
67131;HTU21D;54051;53.464;49.532;2023-03-13T07:27:17;3.03;84.61
67131;HTU21D;54051;53.464;49.532;2023-03-13T07:32:54;2.84;84.75
67131;HTU21D;54051;53.464;49.532;2023-03-13T07:35:29;2.76;85.37
67131;HTU21D;54051;53.464;49.532;2023-03-13T07:40:54;2.85;85.31
67131;HTU21D;54051;53.464;49.532;2023-03-13T07:46:12;2.94;85.13
67131;HTU21D;54051;53.464;49.532;2023-03-13T07:51:45;2.90;84.41
67131;HTU21D;54051;53.464;49.532;2023-03-13T07:54:38;2.82;84.55
67131;HTU21D;54051;53.464;49.532;2023-03-13T07:57:07;2.86;85.00
67131;HTU21D;54051;53.464;49.532;2023-03-13T08:08:32;3.10;83.65
67131;HTU21D;54051;53.464;49.532;2023-03-13T08:14:11;3.28;82.78
67131;HTU21D;54051;53.464;49.532;2023-03-13T08:16:46;3.29;82.71
67131;HTU21D;54051;53.464;49.532;2023-03-13T08:19:12;3.18;82.52
67131;HTU21D;54051;53.464;49.532;2023-03-13T08:21:42;3.17;83.04
67131;HTU21D;54051;53.464;49.532;2023-03-13T08:24:34;3.01;83.19
67131;HTU21D;54051;53.464;49.532;2023-03-13T08:27:25;2.98;83.67
67131;HTU21D;54051;53.464;49.532;2023-03-13T08:30:19;2.96;83.58
67131;HTU21D;54051;53.464;49.532;2023-03-13T08:32:46;2.99;83.34
67131;HTU21D;54051;53.464;49.532;2023-03-13T08:35:16;2.96;83.23
67131;HTU21D;54051;53.464;49.532;2023-03-13T08:40:22;2.85;84.11
67131;HTU21D;54051;53.464;49.532;2023-03-13T08:42:56;2.93;84.39
67131;HTU21D;54051;53.464;49.532;2023-03-13T08:48:43;3.12;83.23
67131;HTU21D;54051;53.464;49.532;2023-03-13T08:51:12;3.31;83.20
67131;HTU21D;54051;53.464;49.532;2023-03-13T08:53:41;3.50;82.34
67131;HTU21D;54051;53.464;49.532;2023-03-13T08:56:12;3.62;81.39
67131;HTU21D;54051;53.464;49.532;2023-03-13T08:58:40;3.53;81.13
67131;HTU21D;54051;53.464;49.532;2023-03-13T09:01:09;3.57;81.66
67131;HTU21D;54051;53.464;49.532;2023-03-13T09:03:36;3.90;81.45
67131;HTU21D;54051;53.464;49.532;2023-03-13T09:06:03;4.17;79.58
67131;HTU21D;54051;53.464;49.532;2023-03-13T09:08:30;4.28;79.10
67131;HTU21D;54051;53.464;49.532;2023-03-13T09:13:54;4.61;78.69
67131;HTU21D;54051;53.464;49.532;2023-03-13T09:16:23;4.96;76.44
67131;HTU21D;54051;53.464;49.532;2023-03-13T09:18:50;5.39;75.19
67131;HTU21D;54051;53.464;49.532;2023-03-13T09:21:27;5.64;73.35
67131;HTU21D;54051;53.464;49.532;2023-03-13T09:23:53;5.95;72.79
67131;HTU21D;54051;53.464;49.532;2023-03-13T09:26:21;6.31;72.15
67131;HTU21D;54051;53.464;49.532;2023-03-13T09:28:56;7.01;70.08
67131;HTU21D;54051;53.464;49.532;2023-03-13T09:31:25;6.99;68.13
67131;HTU21D;54051;53.464;49.532;2023-03-13T09:33:52;6.67;69.54
67131;HTU21D;54051;53.464;49.532;2023-03-13T09:36:20;6.44;70.24
67131;HTU21D;54051;53.464;49.532;2023-03-13T09:38:46;6.64;69.42
67131;HTU21D;54051;53.464;49.532;2023-03-13T09:44:10;6.96;68.66
67131;HTU21D;54051;53.464;49.532;2023-03-13T09:52:22;7.19;67.49
67131;HTU21D;54051;53.464;49.532;2023-03-13T10:00:12;7.74;64.53
67131;HTU21D;54051;53.464;49.532;2023-03-13T10:02:41;7.61;67.27
67131;HTU21D;54051;53.464;49.532;2023-03-13T10:05:16;7.59;66.52
67131;HTU21D;54051;53.464;49.532;2023-03-13T10:07:43;7.72;65.66
67131;HTU21D;54051;53.464;49.532;2023-03-13T10:10:39;7.72;65.20
67131;HTU21D;54051;53.464;49.532;2023-03-13T10:13:21;7.55;65.39
67131;HTU21D;54051;53.464;49.532;2023-03-13T10:16:11;7.24;66.55
67131;HTU21D;54051;53.464;49.532;2023-03-13T10:18:43;7.02;67.51
67131;HTU21D;54051;53.464;49.532;2023-03-13T10:21:17;6.98;68.01
67131;HTU21D;54051;53.464;49.532;2023-03-13T10:26:37;7.01;68.95
67131;HTU21D;54051;53.464;49.532;2023-03-13T10:29:26;6.97;68.39
67131;HTU21D;54051;53.464;49.532;2023-03-13T10:32:05;6.73;68.72
67131;HTU21D;54051;53.464;49.532;2023-03-13T10:37:23;6.36;71.71
67131;HTU21D;54051;53.464;49.532;2023-03-13T10:39:50;6.33;72.71
67131;HTU21D;54051;53.464;49.532;2023-03-13T10:42:32;6.44;71.29
67131;HTU21D;54051;53.464;49.532;2023-03-13T10:45:04;6.64;70.89
67131;HTU21D;54051;53.464;49.532;2023-03-13T10:47:37;6.71;71.00
67131;HTU21D;54051;53.464;49.532;2023-03-13T10:50:04;6.87;68.67
67131;HTU21D;54051;53.464;49.532;2023-03-13T10:55:05;7.14;66.35
67131;HTU21D;54051;53.464;49.532;2023-03-13T10:57:34;7.10;67.38
67131;HTU21D;54051;53.464;49.532;2023-03-13T11:02:47;6.53;68.10
67131;HTU21D;54051;53.464;49.532;2023-03-13T11:05:30;6.67;69.12
67131;HTU21D;54051;53.464;49.532;2023-03-13T11:07:57;6.61;68.49
67131;HTU21D;54051;53.464;49.532;2023-03-13T11:10:25;6.45;67.18
67131;HTU21D;54051;53.464;49.532;2023-03-13T11:12:56;6.06;67.92
67131;HTU21D;54051;53.464;49.532;2023-03-13T11:15:29;5.86;68.94
67131;HTU21D;54051;53.464;49.532;2023-03-13T11:18:29;5.65;62.14
67131;HTU21D;54051;53.464;49.532;2023-03-13T11:20:55;5.78;61.08
67131;HTU21D;54051;53.464;49.532;2023-03-13T11:26:01;5.79;59.20
67131;HTU21D;54051;53.464;49.532;2023-03-13T11:31:20;5.66;60.61
67131;HTU21D;54051;53.464;49.532;2023-03-13T11:52:47;5.86;54.54
67131;HTU21D;54051;53.464;49.532;2023-03-13T11:55:40;5.61;54.12
67131;HTU21D;54051;53.464;49.532;2023-03-13T12:06:54;6.19;53.66
67131;HTU21D;54051;53.464;49.532;2023-03-13T12:10:01;5.91;55.33
67131;HTU21D;54051;53.464;49.532;2023-03-13T12:13:02;5.74;58.22
67131;HTU21D;54051;53.464;49.532;2023-03-13T12:21:02;5.86;56.97
67131;HTU21D;54051;53.464;49.532;2023-03-13T12:23:49;6.05;56.53
67131;HTU21D;54051;53.464;49.532;2023-03-13T12:26:41;5.90;55.69
67131;HTU21D;54051;53.464;49.532;2023-03-13T12:29:15;5.52;55.17
67131;HTU21D;54051;53.464;49.532;2023-03-13T12:32:01;5.48;55.10
67131;HTU21D;54051;53.464;49.532;2023-03-13T12:34:52;5.41;54.96
67131;HTU21D;54051;53.464;49.532;2023-03-13T12:43:33;5.68;55.62
67131;HTU21D;54051;53.464;49.532;2023-03-13T12:49:28;5.61;54.51
67131;HTU21D;54051;53.464;49.532;2023-03-13T12:54:51;5.76;54.33
67131;HTU21D;54051;53.464;49.532;2023-03-13T13:00:22;5.81;52.42
67131;HTU21D;54051;53.464;49.532;2023-03-13T13:05:28;5.78;53.05
67131;HTU21D;54051;53.464;49.532;2023-03-13T13:08:23;5.66;53.11
67131;HTU21D;54051;53.464;49.532;2023-03-13T13:10:50;5.59;51.59
67131;HTU21D;54051;53.464;49.532;2023-03-13T13:13:28;5.66;52.57
67131;HTU21D;54051;53.464;49.532;2023-03-13T13:16:03;5.63;52.52
67131;HTU21D;54051;53.464;49.532;2023-03-13T13:18:31;5.53;54.10
67131;HTU21D;54051;53.464;49.532;2023-03-13T13:23:31;5.18;53.01
67131;HTU21D;54051;53.464;49.532;2023-03-13T13:31:55;4.94;53.52
67131;HTU21D;54051;53.464;49.532;2023-03-13T13:37:46;4.79;53.14
67131;HTU21D;54051;53.464;49.532;2023-03-13T13:42:57;4.51;53.62
67131;HTU21D;54051;53.464;49.532;2023-03-13T13:45:35;4.41;54.27
67131;HTU21D;54051;53.464;49.532;2023-03-13T13:57:14;4.10;56.30
67131;HTU21D;54051;53.464;49.532;2023-03-13T14:02:35;4.02;56.38
67131;HTU21D;54051;53.464;49.532;2023-03-13T14:10:16;3.85;56.49
67131;HTU21D;54051;53.464;49.532;2023-03-13T14:23:28;3.60;56.89
67131;HTU21D;54051;53.464;49.532;2023-03-13T14:28:29;3.53;57.47
67131;HTU21D;54051;53.464;49.532;2023-03-13T14:30:56;3.54;57.90
67131;HTU21D;54051;53.464;49.532;2023-03-13T14:33:24;3.50;58.80
67131;HTU21D;54051;53.464;49.532;2023-03-13T14:35:53;3.44;58.09
67131;HTU21D;54051;53.464;49.532;2023-03-13T14:40:59;3.42;58.99
67131;HTU21D;54051;53.464;49.532;2023-03-13T14:43:36;3.35;58.99
67131;HTU21D;54051;53.464;49.532;2023-03-13T14:49:03;3.25;59.06
67131;HTU21D;54051;53.464;49.532;2023-03-13T14:51:30;3.18;59.55
67131;HTU21D;54051;53.464;49.532;2023-03-13T14:53:58;3.16;58.84
67131;HTU21D;54051;53.464;49.532;2023-03-13T14:56:35;3.11;60.16
67131;HTU21D;54051;53.464;49.532;2023-03-13T14:59:11;3.08;59.46
67131;HTU21D;54051;53.464;49.532;2023-03-13T15:01:41;3.01;60.02
67131;HTU21D;54051;53.464;49.532;2023-03-13T15:04:07;2.97;60.38
67131;HTU21D;54051;53.464;49.532;2023-03-13T15:06:34;2.99;60.92
67131;HTU21D;54051;53.464;49.532;2023-03-13T15:09:26;2.85;63.29
67131;HTU21D;54051;53.464;49.532;2023-03-13T15:11:57;2.68;65.44
67131;HTU21D;54051;53.464;49.532;2023-03-13T15:14:37;2.56;62.75
67131;HTU21D;54051;53.464;49.532;2023-03-13T15:17:14;2.54;63.95
67131;HTU21D;54051;53.464;49.532;2023-03-13T15:19:42;2.51;63.98
67131;HTU21D;54051;53.464;49.532;2023-03-13T15:22:12;2.42;65.17
67131;HTU21D;54051;53.464;49.532;2023-03-13T15:24:39;2.38;65.06
67131;HTU21D;54051;53.464;49.532;2023-03-13T15:27:18;2.35;62.86
67131;HTU21D;54051;53.464;49.532;2023-03-13T15:29:45;2.27;63.16
67131;HTU21D;54051;53.464;49.532;2023-03-13T15:38:14;2.08;66.19
67131;HTU21D;54051;53.464;49.532;2023-03-13T15:43:30;1.88;68.40
67131;HTU21D;54051;53.464;49.532;2023-03-13T15:46:02;1.81;68.87
67131;HTU21D;54051;53.464;49.532;2023-03-13T15:48:29;1.76;69.66
67131;HTU21D;54051;53.464;49.532;2023-03-13T15:50:58;1.76;70.48
67131;HTU21D;54051;53.464;49.532;2023-03-13T15:53:28;1.71;71.10
67131;HTU21D;54051;53.464;49.532;2023-03-13T15:55:56;1.67;72.79
67131;HTU21D;54051;53.464;49.532;2023-03-13T15:58:22;1.63;71.98
67131;HTU21D;54051;53.464;49.532;2023-03-13T16:03:43;1.49;71.47
67131;HTU21D;54051;53.464;49.532;2023-03-13T16:06:20;1.40;71.36
67131;HTU21D;54051;53.464;49.532;2023-03-13T16:08:59;1.39;72.52
67131;HTU21D;54051;53.464;49.532;2023-03-13T16:11:28;1.31;73.09
67131;HTU21D;54051;53.464;49.532;2023-03-13T16:13:55;1.24;73.99
67131;HTU21D;54051;53.464;49.532;2023-03-13T16:16:25;1.07;74.12
67131;HTU21D;54051;53.464;49.532;2023-03-13T16:18:55;1.04;74.22
67131;HTU21D;54051;53.464;49.532;2023-03-13T16:21:25;1.07;74.22
67131;HTU21D;54051;53.464;49.532;2023-03-13T16:23:51;1.09;75.47
67131;HTU21D;54051;53.464;49.532;2023-03-13T16:26:20;1.08;75.62
67131;HTU21D;54051;53.464;49.532;2023-03-13T16:28:47;1.06;75.90
67131;HTU21D;54051;53.464;49.532;2023-03-13T16:31:19;0.83;76.31
67131;HTU21D;54051;53.464;49.532;2023-03-13T16:33:46;0.78;77.58
67131;HTU21D;54051;53.464;49.532;2023-03-13T16:36:17;0.81;77.40
67131;HTU21D;54051;53.464;49.532;2023-03-13T16:38:44;0.88;75.46
67131;HTU21D;54051;53.464;49.532;2023-03-13T16:41:15;0.90;74.73
67131;HTU21D;54051;53.464;49.532;2023-03-13T16:43:44;0.92;74.22
67131;HTU21D;54051;53.464;49.532;2023-03-13T16:46:23;0.91;74.06
67131;HTU21D;54051;53.464;49.532;2023-03-13T16:48:52;0.87;76.37
67131;HTU21D;54051;53.464;49.532;2023-03-13T16:51:24;0.87;76.66
67131;HTU21D;54051;53.464;49.532;2023-03-13T16:53:54;0.86;76.81
67131;HTU21D;54051;53.464;49.532;2023-03-13T16:56:28;0.82;76.91
67131;HTU21D;54051;53.464;49.532;2023-03-13T16:58:55;0.79;76.63
67131;HTU21D;54051;53.464;49.532;2023-03-13T17:01:22;0.77;76.79
67131;HTU21D;54051;53.464;49.532;2023-03-13T17:03:52;0.72;75.99
67131;HTU21D;54051;53.464;49.532;2023-03-13T17:06:24;0.76;76.65
67131;HTU21D;54051;53.464;49.532;2023-03-13T17:08:51;0.78;77.27
67131;HTU21D;54051;53.464;49.532;2023-03-13T17:11:21;0.72;76.92
67131;HTU21D;54051;53.464;49.532;2023-03-13T17:13:48;0.73;75.99
67131;HTU21D;54051;53.464;49.532;2023-03-13T17:18:44;0.90;75.57
67131;HTU21D;54051;53.464;49.532;2023-03-13T17:21:36;0.99;74.90
67131;HTU21D;54051;53.464;49.532;2023-03-13T17:26:48;1.21;74.28
67131;HTU21D;54051;53.464;49.532;2023-03-13T17:29:39;1.20;74.06
67131;HTU21D;54051;53.464;49.532;2023-03-13T17:34:40;1.06;75.31
67131;HTU21D;54051;53.464;49.532;2023-03-13T17:37:17;0.92;76.15
67131;HTU21D;54051;53.464;49.532;2023-03-13T17:39:44;0.84;76.60
67131;HTU21D;54051;53.464;49.532;2023-03-13T17:42:11;0.79;76.82
67131;HTU21D;54051;53.464;49.532;2023-03-13T17:44:37;0.75;76.62
67131;HTU21D;54051;53.464;49.532;2023-03-13T17:47:10;0.71;77.89
67131;HTU21D;54051;53.464;49.532;2023-03-13T17:49:37;0.74;78.18
67131;HTU21D;54051;53.464;49.532;2023-03-13T17:52:03;0.71;76.69
67131;HTU21D;54051;53.464;49.532;2023-03-13T17:54:29;0.60;77.29
67131;HTU21D;54051;53.464;49.532;2023-03-13T17:56:55;0.65;77.85
67131;HTU21D;54051;53.464;49.532;2023-03-13T17:59:22;0.76;77.21
67131;HTU21D;54051;53.464;49.532;2023-03-13T18:01:48;0.84;76.67
67131;HTU21D;54051;53.464;49.532;2023-03-13T18:04:14;0.84;76.79
67131;HTU21D;54051;53.464;49.532;2023-03-13T18:06:45;0.90;76.78
67131;HTU21D;54051;53.464;49.532;2023-03-13T18:09:17;0.96;76.68
67131;HTU21D;54051;53.464;49.532;2023-03-13T18:11:44;0.98;77.69
67131;HTU21D;54051;53.464;49.532;2023-03-13T18:14:10;1.04;76.62
67131;HTU21D;54051;53.464;49.532;2023-03-13T18:16:39;0.98;75.31
67131;HTU21D;54051;53.464;49.532;2023-03-13T18:19:20;0.94;75.24
67131;HTU21D;54051;53.464;49.532;2023-03-13T18:21:48;0.88;74.77
67131;HTU21D;54051;53.464;49.532;2023-03-13T18:24:14;0.87;74.36
67131;HTU21D;54051;53.464;49.532;2023-03-13T18:26:44;0.86;74.04
67131;HTU21D;54051;53.464;49.532;2023-03-13T18:29:21;0.78;73.78
67131;HTU21D;54051;53.464;49.532;2023-03-13T18:31:52;0.74;73.98
67131;HTU21D;54051;53.464;49.532;2023-03-13T18:34:21;0.74;73.77
67131;HTU21D;54051;53.464;49.532;2023-03-13T18:36:48;0.72;73.81
67131;HTU21D;54051;53.464;49.532;2023-03-13T18:39:15;0.65;73.81
67131;HTU21D;54051;53.464;49.532;2023-03-13T18:41:43;0.68;73.76
67131;HTU21D;54051;53.464;49.532;2023-03-13T18:44:09;0.65;73.95
67131;HTU21D;54051;53.464;49.532;2023-03-13T18:46:42;0.59;73.95
67131;HTU21D;54051;53.464;49.532;2023-03-13T18:49:14;0.58;73.88
67131;HTU21D;54051;53.464;49.532;2023-03-13T18:51:42;0.52;74.30
67131;HTU21D;54051;53.464;49.532;2023-03-13T18:54:09;0.54;74.34
67131;HTU21D;54051;53.464;49.532;2023-03-13T18:56:35;0.53;74.99
67131;HTU21D;54051;53.464;49.532;2023-03-13T18:59:01;0.49;74.71
67131;HTU21D;54051;53.464;49.532;2023-03-13T19:01:30;0.49;75.10
67131;HTU21D;54051;53.464;49.532;2023-03-13T19:03:56;0.47;75.42
67131;HTU21D;54051;53.464;49.532;2023-03-13T19:06:28;0.47;75.03
67131;HTU21D;54051;53.464;49.532;2023-03-13T19:09:04;0.40;75.33
67131;HTU21D;54051;53.464;49.532;2023-03-13T19:11:31;0.34;75.82
67131;HTU21D;54051;53.464;49.532;2023-03-13T19:13:58;0.33;76.25
67131;HTU21D;54051;53.464;49.532;2023-03-13T19:16:36;0.28;76.34
67131;HTU21D;54051;53.464;49.532;2023-03-13T19:19:18;0.22;76.81
67131;HTU21D;54051;53.464;49.532;2023-03-13T19:21:49;0.19;77.03
67131;HTU21D;54051;53.464;49.532;2023-03-13T19:24:15;0.16;77.74
67131;HTU21D;54051;53.464;49.532;2023-03-13T19:26:44;0.15;77.20
67131;HTU21D;54051;53.464;49.532;2023-03-13T19:29:20;0.15;77.06
67131;HTU21D;54051;53.464;49.532;2023-03-13T19:31:47;0.14;76.79
67131;HTU21D;54051;53.464;49.532;2023-03-13T19:34:13;0.06;76.82
67131;HTU21D;54051;53.464;49.532;2023-03-13T19:36:46;0.16;75.90
67131;HTU21D;54051;53.464;49.532;2023-03-13T19:39:22;0.17;75.94
67131;HTU21D;54051;53.464;49.532;2023-03-13T19:41:50;0.13;76.02
67131;HTU21D;54051;53.464;49.532;2023-03-13T19:44:17;0.13;76.31
67131;HTU21D;54051;53.464;49.532;2023-03-13T19:46:44;0.16;76.31
67131;HTU21D;54051;53.464;49.532;2023-03-13T19:49:13;0.09;76.58
67131;HTU21D;54051;53.464;49.532;2023-03-13T19:51:39;0.07;77.02
67131;HTU21D;54051;53.464;49.532;2023-03-13T19:54:06;0.06;77.33
67131;HTU21D;54051;53.464;49.532;2023-03-13T19:56:36;0.01;77.36
67131;HTU21D;54051;53.464;49.532;2023-03-13T19:59:09;-0.03;77.73
67131;HTU21D;54051;53.464;49.532;2023-03-13T20:01:37;-0.00;77.82
67131;HTU21D;54051;53.464;49.532;2023-03-13T20:04:03;-0.06;78.21
67131;HTU21D;54051;53.464;49.532;2023-03-13T20:06:31;-0.12;78.45
67131;HTU21D;54051;53.464;49.532;2023-03-13T20:08:59;-0.17;78.81
67131;HTU21D;54051;53.464;49.532;2023-03-13T20:11:26;-0.20;79.34
67131;HTU21D;54051;53.464;49.532;2023-03-13T20:13:53;-0.24;79.45
67131;HTU21D;54051;53.464;49.532;2023-03-13T20:16:20;-0.22;79.30
67131;HTU21D;54051;53.464;49.532;2023-03-13T20:18:49;-0.23;79.18
67131;HTU21D;54051;53.464;49.532;2023-03-13T20:21:15;-0.26;79.17
67131;HTU21D;54051;53.464;49.532;2023-03-13T20:23:43;-0.27;79.59
67131;HTU21D;54051;53.464;49.532;2023-03-13T20:26:09;-0.29;79.75
67131;HTU21D;54051;53.464;49.532;2023-03-13T20:28:36;-0.31;79.70
67131;HTU21D;54051;53.464;49.532;2023-03-13T20:31:03;-0.34;79.66
67131;HTU21D;54051;53.464;49.532;2023-03-13T20:33:29;-0.29;79.37
67131;HTU21D;54051;53.464;49.532;2023-03-13T20:36:00;-0.32;79.41